Time;durP1;ratioP1;P1;durP2;ratioP2;P2;SDS_P1;SDS_P2;PMS_P1;PMS_P2;Temp;Humidity;BMP_temperature;BMP_pressure;BME280_temperature;BME280_humidity;BME280_pressure;Samples;Min_cycle;Max_cycle;Signal;HPM_P1;HPM_P2
2021/12/10 00:01:11;;;;;;;54.57;23.57;;;0.10;99.90;;;;;;4921908;29;20214;-80
2021/12/10 00:03:47;;;;;;;54.70;24.10;;;0.10;99.90;;;;;;4938955;29;20184;-80
2021/12/10 00:06:28;;;;;;;51.17;21.03;;;0.20;99.90;;;;;;4939030;29;20187;-80
2021/12/10 00:09:03;;;;;;;57.03;21.03;;;0.10;99.90;;;;;;4922105;29;20690;-80
2021/12/10 00:11:35;;;;;;;58.90;22.00;;;0.20;99.90;;;;;;4938763;29;20181;-81
2021/12/10 00:14:04;;;;;;;68.73;27.00;;;0.20;99.90;;;;;;4938844;29;20180;-80
2021/12/10 00:16:30;;;;;;;63.13;26.33;;;0.20;99.90;;;;;;4921219;29;20208;-81
2021/12/10 00:18:57;;;;;;;83.77;28.83;;;;;;;;;;4922044;29;20251;-81
2021/12/10 00:21:26;;;;;;;57.30;23.07;;;0.30;99.90;;;;;;4921734;29;20187;-81
2021/12/10 00:23:54;;;;;;;60.33;23.70;;;0.30;99.90;;;;;;4921588;29;20179;-79
2021/12/10 00:26:21;;;;;;;54.23;21.47;;;;;;;;;;4921858;29;20581;-80
2021/12/10 00:28:48;;;;;;;54.13;20.37;;;0.30;99.90;;;;;;4938411;29;20194;-79
2021/12/10 00:34:16;;;;;;;60.93;23.53;;;;;;;;;;4933751;29;20249;-80
2021/12/10 00:36:43;;;;;;;77.77;33.27;;;0.40;99.90;;;;;;4938152;29;20207;-81
2021/12/10 00:39:17;;;;;;;70.60;26.83;;;0.40;99.90;;;;;;4921323;29;20256;-79
2021/12/10 00:41:43;;;;;;;73.13;24.10;;;;;;;;;;4920902;29;20654;-79
2021/12/10 00:44:09;;;;;;;77.40;23.17;;;0.40;99.90;;;;;;4938242;29;20199;-80
2021/12/10 00:46:35;;;;;;;52.30;18.87;;;0.40;99.90;;;;;;4905563;29;20675;-80
2021/12/10 00:49:03;;;;;;;51.80;19.60;;;0.60;99.90;;;;;;4921637;29;20183;-80
2021/12/10 00:51:28;;;;;;;80.70;30.03;;;0.40;99.90;;;;;;4938424;29;20223;-80
2021/12/10 00:53:54;;;;;;;44.53;18.07;;;0.40;99.90;;;;;;4921215;29;20187;-80
2021/12/10 00:56:20;;;;;;;63.40;21.17;;;0.40;99.90;;;;;;4937912;29;20668;-79
2021/12/10 00:58:46;;;;;;;78.67;25.60;;;0.40;99.90;;;;;;4937982;29;20196;-79
2021/12/10 01:01:17;;;;;;;55.47;21.40;;;0.50;99.90;;;;;;4919997;29;20182;-80
2021/12/10 01:03:50;;;;;;;59.63;21.00;;;0.60;99.90;;;;;;4920925;29;20181;-79
2021/12/10 01:06:17;;;;;;;89.07;29.03;;;0.50;99.90;;;;;;4938275;29;20693;-79
2021/12/10 01:08:47;;;;;;;50.33;19.00;;;0.50;99.90;;;;;;4937627;29;20211;-80
2021/12/10 01:11:22;;;;;;;52.30;18.67;;;0.40;99.90;;;;;;4937796;29;20226;-80
2021/12/10 01:13:51;;;;;;;58.27;22.07;;;0.50;99.90;;;;;;4937776;29;20187;-80
2021/12/10 01:27:28;;;;;;;45.93;17.60;;;0.50;99.90;;;;;;4944991;29;20301;-80
2021/12/10 01:29:57;;;;;;;47.73;17.70;;;0.50;99.90;;;;;;4939437;29;20186;-79
2021/12/10 01:32:28;;;;;;;63.27;22.40;;;0.50;99.90;;;;;;4924225;29;20598;-80
2021/12/10 01:34:55;;;;;;;56.97;18.57;;;0.50;99.90;;;;;;4956293;29;20184;-80
2021/12/10 01:37:21;;;;;;;50.67;18.33;;;0.50;99.90;;;;;;4956612;29;20183;-79
2021/12/10 01:39:47;;;;;;;61.43;21.53;;;0.50;99.90;;;;;;4939003;29;20179;-80
2021/12/10 01:42:43;;;;;;;55.23;19.77;;;0.50;99.90;;;;;;4939682;29;20628;-80
2021/12/10 01:45:06;;;;;;;71.70;22.80;;;0.40;99.90;;;;;;4955941;29;20657;-80
2021/12/10 01:47:37;;;;;;;59.60;21.17;;;0.50;99.90;;;;;;4956766;29;20180;-80
2021/12/10 01:50:05;;;;;;;48.77;17.83;;;0.50;99.90;;;;;;4939127;29;20284;-80
2021/12/10 01:52:31;;;;;;;54.93;20.87;;;0.50;99.90;;;;;;4939202;29;20253;-79
2021/12/10 01:54:59;;;;;;;113.73;36.60;;;0.50;99.90;;;;;;4956181;29;20577;-79
2021/12/10 01:57:32;;;;;;;64.03;28.00;;;0.50;99.90;;;;;;4939154;29;20196;-79
2021/12/10 01:59:59;;;;;;;85.90;39.77;;;0.50;99.90;;;;;;4956193;29;20192;-78
2021/12/10 02:02:31;;;;;;;49.40;19.73;;;0.50;99.90;;;;;;4956081;29;20190;-78
2021/12/10 02:04:58;;;;;;;49.07;17.57;;;0.50;99.90;;;;;;4956411;29;20204;-80
2021/12/10 02:07:26;;;;;;;50.87;19.20;;;0.50;99.90;;;;;;4939305;29;20190;-79
2021/12/10 02:09:52;;;;;;;41.73;17.07;;;0.50;99.90;;;;;;4955835;29;20238;-80
2021/12/10 02:12:21;;;;;;;41.53;17.10;;;0.50;99.90;;;;;;4938627;29;20203;-80
2021/12/10 02:14:58;;;;;;;36.20;15.20;;;0.60;99.90;;;;;;4955682;29;20256;-79
2021/12/10 02:17:25;;;;;;;43.20;17.23;;;0.80;99.90;;;;;;4956401;29;20314;-80
2021/12/10 02:19:51;;;;;;;48.17;17.53;;;;;;;;;;4939212;29;20183;-79
2021/12/10 02:22:17;;;;;;;49.50;18.57;;;;;;;;;;4940010;29;20182;-80
2021/12/10 02:24:43;;;;;;;45.27;18.50;;;0.60;99.90;;;;;;4939451;29;20191;-80
2021/12/10 02:27:09;;;;;;;40.70;17.90;;;0.60;99.90;;;;;;4909204;29;20595;-80
2021/12/10 02:29:37;;;;;;;48.70;18.93;;;0.60;99.90;;;;;;4957405;29;20167;-78
2021/12/10 02:32:09;;;;;;;48.93;18.13;;;0.60;99.90;;;;;;4979887;29;20186;-79
2021/12/10 02:34:35;;;;;;;49.87;19.40;;;0.60;99.90;;;;;;4980182;29;20162;-77
2021/12/10 02:37:02;;;;;;;51.37;21.20;;;0.60;99.90;;;;;;4980188;29;20268;-80
2021/12/10 02:39:28;;;;;;;52.70;18.87;;;0.60;99.90;;;;;;4947903;29;20195;-79
2021/12/10 02:41:55;;;;;;;51.77;19.93;;;0.60;99.90;;;;;;4940006;29;20194;-80
2021/12/10 02:44:25;;;;;;;41.63;18.30;;;-0.50;99.90;;;;;;4925489;29;20286;-80
2021/12/10 02:46:51;;;;;;;52.13;18.60;;;0.60;99.90;;;;;;4954281;29;20187;-81
2021/12/10 02:49:18;;;;;;;39.77;17.17;;;0.70;99.90;;;;;;4944142;29;20190;-80
2021/12/10 02:51:44;;;;;;;43.03;17.90;;;;;;;;;;4960322;29;20209;-80
2021/12/10 02:54:14;;;;;;;40.90;18.87;;;0.60;99.90;;;;;;4953301;29;20750;-80
2021/12/10 02:56:40;;;;;;;41.13;18.23;;;0.70;99.90;;;;;;4927839;29;20241;-79
2021/12/10 02:59:06;;;;;;;41.83;17.27;;;0.60;99.90;;;;;;4962207;29;20195;-79
2021/12/10 03:01:38;;;;;;;47.53;19.20;;;0.70;99.90;;;;;;4938744;29;20223;-79
2021/12/10 03:04:07;;;;;;;43.30;18.40;;;0.70;99.90;;;;;;4937851;29;20546;-79
2021/12/10 03:07:01;;;;;;;43.97;18.33;;;0.70;99.90;;;;;;4955307;29;20648;-81
2021/12/10 03:09:28;;;;;;;47.50;20.00;;;0.70;99.90;;;;;;4951268;29;20252;-80
2021/12/10 03:11:56;;;;;;;37.57;16.67;;;0.70;99.90;;;;;;4937666;29;20244;-79
2021/12/10 03:14:30;;;;;;;37.83;17.97;;;0.70;99.90;;;;;;4938341;29;20191;-80
2021/12/10 03:17:00;;;;;;;33.20;15.17;;;0.70;99.90;;;;;;4937750;29;20225;-79
2021/12/10 03:19:25;;;;;;;44.40;18.27;;;0.70;99.90;;;;;;4955139;29;20264;-80
2021/12/10 03:21:51;;;;;;;46.03;18.27;;;0.70;99.90;;;;;;4954984;29;20339;-82
2021/12/10 03:24:22;;;;;;;39.47;17.03;;;0.70;99.90;;;;;;4957558;28;20207;-80
2021/12/10 03:26:51;;;;;;;36.73;17.13;;;0.80;99.90;;;;;;4961215;29;20231;-80
2021/12/10 03:29:19;;;;;;;36.10;16.67;;;0.70;99.90;;;;;;4944704;29;20178;-80
2021/12/10 03:31:45;;;;;;;34.13;16.23;;;;;;;;;;4944019;28;20185;-80
2021/12/10 03:34:11;;;;;;;36.33;16.20;;;0.70;99.90;;;;;;4961143;29;20193;-80
2021/12/10 03:36:45;;;;;;;35.83;15.90;;;0.80;99.90;;;;;;4943844;29;20617;-80
2021/12/10 03:39:11;;;;;;;34.80;15.90;;;0.70;99.90;;;;;;4961085;28;20186;-79
2021/12/10 03:41:36;;;;;;;32.17;15.93;;;0.80;99.90;;;;;;4944143;29;20187;-80
2021/12/10 03:44:03;;;;;;;33.33;15.37;;;0.80;99.90;;;;;;4961383;28;20708;-80
2021/12/10 03:46:28;;;;;;;32.60;15.97;;;0.80;99.90;;;;;;4961100;29;20183;-80
2021/12/10 03:48:54;;;;;;;29.73;14.70;;;0.80;99.90;;;;;;4943757;29;20208;-80
2021/12/10 03:51:23;;;;;;;30.37;14.93;;;0.80;99.90;;;;;;4927633;29;20226;-80
2021/12/10 03:53:50;;;;;;;22.93;12.70;;;;;;;;;;4961187;29;20238;-80
2021/12/10 03:56:18;;;;;;;26.00;14.43;;;0.90;99.90;;;;;;4960794;29;20257;-80
2021/12/10 03:58:45;;;;;;;26.17;14.60;;;0.90;99.90;;;;;;4944230;28;20210;-80
2021/12/10 04:01:13;;;;;;;28.13;14.63;;;0.90;99.90;;;;;;4960654;28;20240;-80
2021/12/10 04:03:41;;;;;;;29.87;16.00;;;0.80;99.90;;;;;;4943521;28;20189;-79
2021/12/10 04:06:07;;;;;;;26.53;14.60;;;;;;;;;;4943552;29;20226;-80
2021/12/10 04:08:33;;;;;;;30.30;15.30;;;;;;;;;;4960950;28;20608;-81
2021/12/10 04:11:00;;;;;;;31.23;14.80;;;0.80;99.90;;;;;;4943374;29;20197;-83
2021/12/10 04:13:26;;;;;;;25.67;14.40;;;;;;;;;;4943877;28;20225;-80
2021/12/10 04:15:52;;;;;;;29.03;13.70;;;0.80;99.90;;;;;;4961141;29;20211;-79
2021/12/10 04:18:18;;;;;;;26.80;13.33;;;0.80;99.90;;;;;;4943396;29;20198;-80
2021/12/10 04:20:45;;;;;;;25.87;14.10;;;0.80;99.90;;;;;;4943702;29;20269;-80
2021/12/10 04:23:14;;;;;;;31.03;15.47;;;0.80;99.90;;;;;;4943429;29;20190;-80
2021/12/10 04:25:41;;;;;;;30.77;15.27;;;0.80;99.90;;;;;;4960914;29;20187;-81
2021/12/10 04:28:09;;;;;;;35.27;18.07;;;0.80;99.90;;;;;;4943159;29;20599;-81
2021/12/10 04:30:40;;;;;;;32.07;15.97;;;0.80;99.90;;;;;;4943479;29;20179;-80
2021/12/10 04:33:13;;;;;;;33.83;17.13;;;0.80;99.90;;;;;;4960260;29;20323;-80
2021/12/10 04:35:39;;;;;;;29.90;16.00;;;0.80;99.90;;;;;;4959400;28;20265;-80
2021/12/10 04:38:05;;;;;;;36.17;16.57;;;;;;;;;;4940441;29;20281;-81
2021/12/10 04:40:31;;;;;;;29.97;15.93;;;0.80;99.90;;;;;;4957733;29;20182;-80
2021/12/10 04:42:57;;;;;;;25.07;13.47;;;0.70;99.90;;;;;;4940697;29;20194;-80
2021/12/10 04:45:23;;;;;;;28.93;13.80;;;0.70;99.90;;;;;;4957251;29;20246;-80
2021/12/10 04:47:49;;;;;;;29.43;14.57;;;0.80;99.90;;;;;;4940158;29;20305;-79
2021/12/10 04:50:19;;;;;;;25.23;13.13;;;0.70;99.90;;;;;;4957361;29;20229;-79
2021/12/10 04:52:45;;;;;;;24.63;11.67;;;0.70;99.90;;;;;;4957435;29;20185;-80
2021/12/10 04:55:14;;;;;;;25.30;12.60;;;0.70;99.90;;;;;;4939434;29;20198;-79
2021/12/10 04:57:41;;;;;;;26.07;12.67;;;0.70;99.90;;;;;;4954091;28;20191;-83
2021/12/10 05:00:10;;;;;;;27.73;14.13;;;1.30;99.90;;;;;;4956666;28;20248;-80
2021/12/10 05:02:37;;;;;;;27.40;13.07;;;0.70;99.90;;;;;;4955565;29;20209;-81
2021/12/10 05:05:04;;;;;;;23.83;11.80;;;0.70;99.90;;;;;;4955468;28;20200;-79
2021/12/10 05:07:35;;;;;;;23.57;12.10;;;0.70;99.90;;;;;;4959644;28;20604;-79
2021/12/10 05:10:01;;;;;;;23.93;11.10;;;0.70;99.90;;;;;;4973022;28;20221;-80
2021/12/10 05:12:27;;;;;;;21.50;10.90;;;0.70;99.90;;;;;;4926693;28;20253;-81
2021/12/10 05:14:59;;;;;;;27.67;13.00;;;0.70;99.90;;;;;;4945253;29;20603;-80
2021/12/10 05:17:28;;;;;;;24.70;12.43;;;0.70;99.90;;;;;;4919039;29;20281;-81
2021/12/10 05:19:54;;;;;;;24.10;12.73;;;0.70;99.90;;;;;;4896080;29;20270;-80
2021/12/10 05:22:20;;;;;;;25.43;13.03;;;0.70;99.90;;;;;;4937741;28;20292;-80
2021/12/10 05:24:45;;;;;;;25.63;10.77;;;0.70;99.90;;;;;;4938207;29;20687;-80
2021/12/10 05:27:11;;;;;;;24.03;10.57;;;0.70;99.90;;;;;;4921149;28;20688;-79
2021/12/10 05:29:37;;;;;;;27.03;12.33;;;0.70;99.90;;;;;;4970096;28;20201;-78
2021/12/10 05:32:05;;;;;;;21.93;11.37;;;0.60;99.90;;;;;;4928841;29;20193;-79
2021/12/10 05:34:31;;;;;;;41.73;17.83;;;0.60;99.90;;;;;;4954662;28;20269;-78
2021/12/10 05:36:58;;;;;;;27.83;12.60;;;0.60;99.90;;;;;;4921686;29;20273;-79
2021/12/10 05:39:24;;;;;;;28.00;12.83;;;;;;;;;;4954607;28;20225;-80
2021/12/10 05:41:52;;;;;;;27.97;13.07;;;0.60;99.90;;;;;;4954861;28;20217;-80
2021/12/10 05:44:18;;;;;;;30.27;12.53;;;0.60;99.90;;;;;;4938907;29;20212;-80
2021/12/10 05:46:44;;;;;;;32.73;13.63;;;0.60;99.90;;;;;;4954023;28;20723;-79
2021/12/10 05:49:10;;;;;;;28.30;12.60;;;0.60;99.90;;;;;;4954664;29;20190;-79
2021/12/10 05:51:37;;;;;;;26.03;11.97;;;0.60;99.90;;;;;;4967574;28;20204;-80
2021/12/10 05:54:04;;;;;;;23.77;12.33;;;0.60;99.90;;;;;;4955054;28;20194;-80
2021/12/10 05:56:30;;;;;;;31.50;13.97;;;0.60;99.90;;;;;;4938643;29;20214;-80
2021/12/10 05:58:57;;;;;;;32.67;14.47;;;0.60;99.90;;;;;;4954545;29;20183;-79
2021/12/10 06:01:24;;;;;;;58.20;22.80;;;0.60;99.90;;;;;;4944345;28;20185;-80
2021/12/10 06:03:54;;;;;;;33.97;15.70;;;0.60;99.90;;;;;;4938071;28;20191;-81
2021/12/10 06:06:24;;;;;;;47.57;21.53;;;0.60;99.90;;;;;;4936460;29;20278;-80
2021/12/10 06:08:50;;;;;;;56.77;24.23;;;0.60;99.90;;;;;;4935416;29;20234;-80
2021/12/10 06:11:17;;;;;;;37.90;17.70;;;0.60;99.90;;;;;;4936597;29;20179;-81
2021/12/10 06:13:44;;;;;;;54.80;20.77;;;0.60;99.90;;;;;;4920289;29;20236;-80
2021/12/10 06:16:10;;;;;;;56.13;21.83;;;0.60;99.90;;;;;;4919756;29;20224;-81
2021/12/10 06:18:35;;;;;;;60.07;25.00;;;0.60;99.90;;;;;;4936629;29;20262;-80
2021/12/10 06:21:01;;;;;;;35.17;14.77;;;0.60;99.90;;;;;;4903683;29;20529;-81
2021/12/10 06:23:27;;;;;;;49.67;20.87;;;0.60;99.90;;;;;;4919357;29;20184;-80
2021/12/10 06:25:53;;;;;;;36.30;14.80;;;0.60;99.90;;;;;;4918967;29;20196;-80
2021/12/10 06:28:19;;;;;;;40.33;17.73;;;0.60;99.90;;;;;;4920224;29;20712;-80
2021/12/10 06:30:47;;;;;;;35.27;15.47;;;0.60;99.90;;;;;;4938324;29;20197;-81
2021/12/10 06:33:16;;;;;;;23.97;12.53;;;0.60;99.90;;;;;;4955782;29;20265;-81
2021/12/10 06:35:44;;;;;;;32.10;15.87;;;0.60;99.90;;;;;;4938175;29;20211;-80
2021/12/10 06:38:10;;;;;;;49.53;20.40;;;0.60;99.90;;;;;;4955636;29;20190;-80
2021/12/10 06:40:39;;;;;;;43.43;16.90;;;0.60;99.90;;;;;;4922360;29;20307;-81
2021/12/10 06:43:06;;;;;;;46.87;19.00;;;0.60;99.90;;;;;;4955328;29;20192;-81
2021/12/10 06:45:33;;;;;;;51.47;19.57;;;0.60;99.90;;;;;;4954960;29;20533;-80
2021/12/10 06:48:01;;;;;;;38.00;15.43;;;0.70;99.90;;;;;;4921824;29;20194;-81
2021/12/10 06:50:33;;;;;;;37.23;15.77;;;0.60;99.90;;;;;;4938014;29;20266;-81
2021/12/10 06:53:00;;;;;;;24.83;12.40;;;0.60;99.90;;;;;;4955243;29;20295;-81
2021/12/10 06:55:28;;;;;;;29.77;12.93;;;0.60;99.90;;;;;;4937820;29;20238;-80
2021/12/10 06:57:54;;;;;;;31.03;14.00;;;0.60;99.90;;;;;;4954920;28;20265;-80
2021/12/10 07:00:25;;;;;;;35.93;15.37;;;0.60;99.90;;;;;;4936749;29;20607;-80
2021/12/10 07:02:51;;;;;;;36.43;16.17;;;0.60;99.90;;;;;;4936981;29;20183;-81
2021/12/10 07:05:17;;;;;;;31.10;13.50;;;0.50;99.90;;;;;;4936793;29;20181;-81
2021/12/10 07:07:46;;;;;;;30.57;14.70;;;0.60;99.90;;;;;;4954019;29;20238;-81
2021/12/10 07:10:13;;;;;;;34.97;16.43;;;0.50;99.90;;;;;;4936849;29;20187;-81
2021/12/10 07:12:40;;;;;;;37.43;16.40;;;0.50;99.90;;;;;;4954058;29;20199;-80
2021/12/10 07:15:09;;;;;;;42.97;18.30;;;0.50;99.90;;;;;;4953918;29;20191;-80
2021/12/10 07:17:38;;;;;;;44.20;20.13;;;0.50;99.90;;;;;;4954796;29;20190;-81
2021/12/10 07:20:05;;;;;;;38.47;17.23;;;0.50;99.90;;;;;;4937314;29;20179;-80
2021/12/10 07:22:31;;;;;;;33.40;15.40;;;0.50;99.90;;;;;;4954918;29;20647;-80
2021/12/10 07:24:57;;;;;;;49.33;19.80;;;0.50;99.90;;;;;;4921911;29;20202;-80
2021/12/10 07:27:24;;;;;;;39.17;17.70;;;0.60;99.90;;;;;;4954157;29;20248;-80
2021/12/10 07:29:50;;;;;;;30.20;14.93;;;0.60;99.90;;;;;;4954612;29;20190;-80
2021/12/10 07:32:16;;;;;;;36.90;18.30;;;0.50;99.90;;;;;;4954116;29;20531;-81
2021/12/10 07:34:42;;;;;;;32.33;15.73;;;;;;;;;;4937011;29;20216;-79
2021/12/10 07:37:10;;;;;;;36.97;17.57;;;0.60;99.90;;;;;;4936510;29;20211;-79
2021/12/10 07:39:37;;;;;;;32.23;15.80;;;0.60;99.90;;;;;;4921383;29;20524;-80
2021/12/10 07:42:04;;;;;;;39.77;16.97;;;0.60;99.90;;;;;;4921206;29;20190;-80
2021/12/10 07:44:30;;;;;;;58.37;20.63;;;0.60;99.90;;;;;;4954089;29;20188;-81
2021/12/10 07:46:56;;;;;;;41.97;18.67;;;0.60;99.90;;;;;;4936956;29;20254;-81
2021/12/10 07:49:28;;;;;;;42.83;18.00;;;0.60;99.90;;;;;;4953960;29;20637;-81
2021/12/10 07:51:55;;;;;;;40.63;18.03;;;0.70;99.90;;;;;;4934692;29;20648;-80
2021/12/10 07:54:22;;;;;;;44.57;18.23;;;0.60;99.90;;;;;;4926513;29;20184;-80
2021/12/10 07:56:48;;;;;;;39.03;16.93;;;0.70;99.90;;;;;;4928859;29;20213;-80
2021/12/10 07:59:13;;;;;;;46.00;19.60;;;0.70;99.90;;;;;;4937351;29;20270;-80
2021/12/10 08:01:39;;;;;;;41.33;18.67;;;0.80;99.90;;;;;;4937187;29;20191;-80
2021/12/10 08:04:06;;;;;;;50.87;19.50;;;0.80;99.90;;;;;;4937246;29;20272;-80
2021/12/10 08:06:35;;;;;;;47.50;20.47;;;0.80;99.90;;;;;;4936565;29;20270;-80
2021/12/10 08:09:04;;;;;;;48.93;20.50;;;0.80;99.90;;;;;;4954241;29;20652;-80
2021/12/10 08:11:29;;;;;;;40.17;17.80;;;0.80;99.90;;;;;;4939968;29;20193;-80
2021/12/10 08:13:55;;;;;;;39.43;18.27;;;0.80;99.90;;;;;;4931957;29;20757;-79
2021/12/10 08:16:23;;;;;;;39.80;18.00;;;0.80;99.90;;;;;;4940567;29;20216;-79
2021/12/10 08:18:50;;;;;;;37.70;17.90;;;0.80;99.90;;;;;;4941397;29;20190;-79
2021/12/10 08:21:17;;;;;;;62.97;23.47;;;0.80;99.90;;;;;;4940787;29;20684;-80
2021/12/10 08:23:43;;;;;;;48.93;21.10;;;0.80;99.90;;;;;;4958001;29;20201;-79
2021/12/10 08:26:10;;;;;;;50.27;20.67;;;0.80;99.90;;;;;;4979763;28;20316;-83
2021/12/10 08:28:36;;;;;;;50.27;21.83;;;0.80;99.90;;;;;;4962290;28;20274;-83
2021/12/10 08:31:03;;;;;;;57.00;22.87;;;0.80;99.90;;;;;;4925623;29;20613;-80
2021/12/10 08:33:29;;;;;;;77.37;26.67;;;;;;;;;;4905406;29;20187;-81
2021/12/10 08:36:01;;;;;;;65.63;24.87;;;2.80;99.90;;;;;;4921483;29;20231;-82
2021/12/10 08:38:28;;;;;;;60.67;24.03;;;0.80;99.90;;;;;;4938419;29;20184;-81
2021/12/10 08:41:02;;;;;;;80.13;28.20;;;0.80;99.90;;;;;;4922190;28;20185;-83
2021/12/10 08:43:29;;;;;;;84.43;28.27;;;0.90;99.90;;;;;;4962007;29;20173;-83
2021/12/10 08:45:55;;;;;;;90.97;30.73;;;0.90;99.90;;;;;;4961938;28;20176;-82
2021/12/10 08:48:23;;;;;;;49.80;23.07;;;0.90;99.90;;;;;;4945641;29;20168;-83
2021/12/10 08:50:49;;;;;;;50.37;20.83;;;0.90;99.90;;;;;;4948258;28;20642;-80
2021/12/10 08:53:15;;;;;;;40.23;19.03;;;1.00;99.90;;;;;;4938007;29;20692;-80
2021/12/10 08:55:46;;;;;;;50.50;21.77;;;1.00;99.90;;;;;;4931826;29;20207;-84
2021/12/10 08:58:13;;;;;;;63.63;25.50;;;1.00;99.90;;;;;;4959220;29;20239;-82
2021/12/10 09:00:43;;;;;;;64.47;23.57;;;1.00;99.90;;;;;;4952406;29;20195;-81
2021/12/10 09:03:09;;;;;;;47.87;21.30;;;1.10;99.90;;;;;;4937682;29;20241;-82
2021/12/10 09:05:35;;;;;;;55.60;21.80;;;1.10;99.90;;;;;;4937381;29;20208;-81
2021/12/10 09:08:01;;;;;;;56.30;23.23;;;1.10;99.90;;;;;;4937413;29;20235;-81
2021/12/10 09:10:32;;;;;;;50.00;22.07;;;1.10;99.90;;;;;;4920386;29;20630;-80
2021/12/10 09:12:59;;;;;;;46.13;21.47;;;1.10;99.90;;;;;;4920723;29;20231;-80
2021/12/10 09:15:26;;;;;;;66.20;26.53;;;1.00;99.90;;;;;;4904933;29;20217;-81
2021/12/10 09:17:53;;;;;;;53.23;22.73;;;1.20;99.90;;;;;;4920551;29;20185;-80
2021/12/10 09:20:23;;;;;;;55.50;23.77;;;1.20;99.90;;;;;;4920918;29;20180;-80
2021/12/10 09:22:50;;;;;;;45.80;19.80;;;1.20;99.90;;;;;;4937307;29;20792;-80
2021/12/10 09:25:17;;;;;;;42.20;20.07;;;1.20;99.90;;;;;;4940324;29;20241;-80
2021/12/10 09:27:43;;;;;;;49.33;20.83;;;;;;;;;;4934099;29;20226;-80
2021/12/10 09:30:14;;;;;;;48.87;23.10;;;1.20;99.90;;;;;;4942704;29;20246;-80
2021/12/10 09:32:40;;;;;;;58.37;23.83;;;1.20;99.90;;;;;;4960430;29;20185;-80
2021/12/10 09:35:08;;;;;;;70.57;28.37;;;1.20;99.90;;;;;;4946958;29;20188;-83
2021/12/10 09:37:36;;;;;;;58.47;23.23;;;1.20;99.90;;;;;;4980996;28;20179;-80
2021/12/10 09:40:06;;;;;;;50.80;23.53;;;1.10;99.90;;;;;;4949029;28;20251;-80
2021/12/10 09:42:32;;;;;;;63.87;24.73;;;1.10;99.90;;;;;;4981164;28;20166;-80
2021/12/10 09:44:58;;;;;;;60.53;25.50;;;1.10;99.90;;;;;;4980925;28;20155;-80
2021/12/10 09:47:24;;;;;;;67.27;26.80;;;1.10;99.90;;;;;;4963512;29;20214;-80
2021/12/10 09:49:53;;;;;;;61.70;25.73;;;1.20;99.90;;;;;;4941372;29;20184;-79
2021/12/10 09:52:21;;;;;;;72.73;26.33;;;1.10;99.90;;;;;;4967124;28;20174;-81
2021/12/10 09:54:47;;;;;;;53.07;23.77;;;1.20;99.90;;;;;;4963792;28;20187;-81
2021/12/10 09:57:21;;;;;;;52.47;23.27;;;1.10;99.90;;;;;;4979927;28;20202;-80
2021/12/10 09:59:51;;;;;;;49.53;21.57;;;1.20;99.90;;;;;;4979523;28;20186;-83
2021/12/10 10:02:18;;;;;;;59.97;24.50;;;1.20;99.90;;;;;;4961760;28;20183;-80
2021/12/10 10:04:49;;;;;;;50.83;23.40;;;1.20;99.90;;;;;;4955300;29;20270;-81
2021/12/10 10:07:22;;;;;;;60.40;24.60;;;1.20;99.90;;;;;;4938268;29;20204;-80
2021/12/10 10:09:50;;;;;;;52.03;23.80;;;1.30;99.90;;;;;;4955473;29;20244;-80
2021/12/10 10:12:22;;;;;;;48.37;22.80;;;1.20;99.90;;;;;;4935792;29;20640;-81
2021/12/10 10:14:49;;;;;;;59.47;25.00;;;1.20;99.90;;;;;;4955229;29;20701;-80
2021/12/10 10:17:16;;;;;;;65.47;27.20;;;1.20;99.90;;;;;;4952551;29;20203;-80
2021/12/10 10:19:43;;;;;;;53.80;23.70;;;1.20;99.90;;;;;;4955114;29;20186;-82
2021/12/10 10:22:12;;;;;;;59.97;26.37;;;1.20;99.90;;;;;;4938186;29;20278;-80
2021/12/10 10:24:38;;;;;;;63.10;25.23;;;1.20;99.90;;;;;;4953297;29;20293;-80
2021/12/10 10:27:13;;;;;;;81.13;33.73;;;1.20;99.90;;;;;;4954450;28;20245;-80
2021/12/10 10:29:42;;;;;;;76.50;41.37;;;1.20;99.90;;;;;;4953082;29;20188;-80
2021/12/10 10:32:14;;;;;;;81.73;45.13;;;1.20;99.90;;;;;;4954881;29;20522;-80
2021/12/10 10:34:44;;;;;;;133.40;49.53;;;1.20;99.90;;;;;;4952986;28;20197;-80
2021/12/10 10:37:11;;;;;;;103.13;42.03;;;;;;;;;;4954752;29;20229;-80
2021/12/10 10:39:38;;;;;;;87.70;35.27;;;1.10;99.90;;;;;;4937573;29;20219;-80
2021/12/10 10:42:06;;;;;;;131.93;39.27;;;1.20;99.90;;;;;;4940897;29;20188;-80
2021/12/10 10:44:32;;;;;;;84.47;29.83;;;1.20;99.90;;;;;;4940954;29;20270;-80
2021/12/10 10:47:00;;;;;;;73.03;30.77;;;1.10;99.90;;;;;;4945445;29;20707;-79
2021/12/10 10:49:40;;;;;;;70.30;27.97;;;1.20;99.90;;;;;;4925729;29;20179;-80
2021/12/10 10:52:18;;;;;;;66.10;27.90;;;1.20;99.90;;;;;;4946192;29;20534;-79
2021/12/10 10:54:46;;;;;;;67.07;27.87;;;1.20;99.90;;;;;;4935630;29;20188;-82
2021/12/10 10:57:24;;;;;;;70.00;27.63;;;1.20;99.90;;;;;;4913310;29;20255;-80
2021/12/10 10:59:56;;;;;;;58.20;25.13;;;1.20;99.90;;;;;;4942553;29;20240;-81
2021/12/10 11:02:24;;;;;;;58.77;24.77;;;1.20;99.90;;;;;;4949179;29;20179;-81
2021/12/10 11:04:51;;;;;;;65.60;26.67;;;1.30;99.90;;;;;;4932270;29;20234;-81
2021/12/10 11:07:24;;;;;;;59.57;25.30;;;1.30;99.90;;;;;;4942658;29;20225;-82
2021/12/10 11:09:53;;;;;;;57.13;26.27;;;1.30;99.90;;;;;;4945560;29;20184;-81
2021/12/10 11:12:28;;;;;;;56.67;24.93;;;1.30;99.90;;;;;;4927897;29;20183;-81
2021/12/10 11:14:56;;;;;;;54.57;24.23;;;1.60;99.90;;;;;;4945079;29;20176;-82
2021/12/10 11:17:33;;;;;;;53.30;24.57;;;1.30;99.90;;;;;;4913567;29;20562;-81
2021/12/10 11:20:14;;;;;;;45.97;21.83;;;1.30;99.90;;;;;;4944785;29;20246;-80
2021/12/10 11:22:51;;;;;;;46.80;21.97;;;1.30;99.90;;;;;;4946246;29;20177;-81
2021/12/10 11:25:25;;;;;;;56.40;22.70;;;1.30;99.90;;;;;;4942582;29;20186;-81
2021/12/10 11:27:51;;;;;;;57.00;26.03;;;1.30;99.90;;;;;;4922759;29;20317;-81
2021/12/10 11:30:21;;;;;;;53.80;25.07;;;1.30;99.90;;;;;;4927565;29;20301;-81
2021/12/10 11:32:54;;;;;;;63.47;27.17;;;1.20;99.90;;;;;;4944056;29;20235;-81
2021/12/10 11:35:43;;;;;;;77.77;34.00;;;1.20;99.90;;;;;;4927610;29;20529;-80
2021/12/10 11:38:17;;;;;;;66.70;29.63;;;1.30;99.90;;;;;;4947140;29;20721;-81
2021/12/10 11:40:53;;;;;;;191.87;69.90;;;1.30;99.90;;;;;;4944454;29;20249;-82
2021/12/10 11:49:18;;;;;;;74.47;29.43;;;1.30;99.90;;;;;;4948890;29;20653;-80
2021/12/10 11:52:00;;;;;;;78.70;30.03;;;1.40;99.90;;;;;;4949506;29;20217;-81
2021/12/10 11:54:31;;;;;;;73.30;31.17;;;1.40;99.90;;;;;;4946641;29;20689;-81
2021/12/10 11:57:05;;;;;;;71.87;28.00;;;1.40;99.90;;;;;;4931912;29;20214;-81
2021/12/10 11:59:52;;;;;;;76.00;33.53;;;1.40;99.90;;;;;;4955316;29;20217;-81
2021/12/10 12:02:19;;;;;;;79.70;36.73;;;1.40;99.90;;;;;;4941079;29;20652;-80
2021/12/10 12:04:58;;;;;;;85.03;36.03;;;1.40;99.90;;;;;;4941000;29;20188;-81
2021/12/10 12:07:36;;;;;;;79.23;33.37;;;1.50;99.90;;;;;;4958354;29;20274;-81
2021/12/10 12:10:32;;;;;;;299.53;152.47;;;1.50;99.90;;;;;;4955162;29;20198;-80
2021/12/10 12:13:10;;;;;;;170.87;83.07;;;1.50;99.90;;;;;;4940742;29;20241;-80
2021/12/10 12:15:42;;;;;;;122.77;62.23;;;1.50;99.90;;;;;;4957922;29;20246;-81
2021/12/10 12:18:10;;;;;;;86.30;42.63;;;1.50;99.90;;;;;;4957259;29;20219;-79
2021/12/10 12:20:42;;;;;;;74.33;34.90;;;1.50;99.90;;;;;;4949081;29;20187;-80
2021/12/10 12:26:13;;;;;;;132.93;75.10;;;1.50;99.90;;;;;;4952015;29;20302;-80
2021/12/10 12:28:49;;;;;;;162.47;95.07;;;1.40;99.90;;;;;;4952431;29;20223;-80
2021/12/10 12:31:30;;;;;;;93.10;45.37;;;1.40;99.90;;;;;;4951969;29;20266;-80
2021/12/10 12:34:04;;;;;;;75.23;36.23;;;1.40;99.90;;;;;;4934637;29;20222;-80
2021/12/10 12:36:48;;;;;;;75.87;33.40;;;1.40;99.90;;;;;;4924798;29;20218;-79
2021/12/10 12:39:33;;;;;;;87.37;34.40;;;1.40;99.90;;;;;;4937766;29;20572;-79
2021/12/10 12:42:02;;;;;;;71.37;30.93;;;1.40;99.90;;;;;;4954046;29;20182;-80
2021/12/10 12:44:35;;;;;;;64.63;27.63;;;1.40;99.90;;;;;;4954698;29;20195;-81
2021/12/10 12:47:13;;;;;;;64.40;29.93;;;1.40;99.90;;;;;;4957193;29;20617;-80
2021/12/10 12:49:47;;;;;;;79.67;34.90;;;1.40;99.90;;;;;;4955920;29;20186;-81
2021/12/10 12:52:22;;;;;;;80.37;34.07;;;1.40;99.90;;;;;;4937411;29;20622;-81
2021/12/10 12:55:12;;;;;;;72.40;31.43;;;1.40;99.90;;;;;;4940637;29;20679;-80
2021/12/10 12:57:40;;;;;;;70.37;30.83;;;1.40;99.90;;;;;;4937287;29;20649;-80
2021/12/10 13:00:10;;;;;;;62.83;28.63;;;1.40;99.90;;;;;;4955729;29;20175;-82
2021/12/10 13:02:36;;;;;;;62.87;28.97;;;1.50;99.90;;;;;;4938972;29;20184;-79
2021/12/10 13:05:06;;;;;;;62.97;29.77;;;1.50;99.90;;;;;;4938638;29;20191;-81
2021/12/10 13:07:32;;;;;;;58.70;28.70;;;1.50;99.90;;;;;;4923462;29;20193;-81
2021/12/10 13:10:03;;;;;;;64.67;31.43;;;1.50;99.90;;;;;;4938720;29;20176;-79
2021/12/10 13:15:23;;;;;;;80.93;36.83;;;1.40;99.90;;;;;;4955691;29;20170;-79